Latest Weather Observations for North Head

IDN60901

Issued at 5:01 pm EDT Sunday 29 January 2023 (issued every 10 minutes, with the page automatically refreshed every 10 minutes)

About weather observations | Map of Sydney area stations | Latest observations for Sydney area | Other Formats
Station Details ID: 066197 Name: NORTH HEAD Lat: -33.82 Lon: 151.30 Height: 90.0 m
Data from the previous 72 hours. | See also: Recent months at North Head
Date/Time
EDT
Temp
°C
App
Temp
°C
Dew
Point
°C
Rel
Hum
%
Delta-T
°C
Wind Press
QNH
hPa
Press
MSL
hPa
Rain since
9am
mm
Dir  Spd
km/h
Gust
km/h
Spd
kts
Gust
kts
29/05:00pm - - - - - N 7 9 4 5 - - -
29/04:30pm - - - - - N 2 6 1 3 - - -
29/04:00pm - - - - - NNE 6 9 3 5 - - -
29/03:30pm - - - - - SE 11 17 6 9 - - -
29/03:00pm - - - - - E 6 11 3 6 - - -
29/02:30pm - - - - - ENE 9 13 5 7 - - -
29/02:00pm - - - - - ENE 13 17 7 9 - - -
29/01:30pm - - - - - ENE 17 22 9 12 - - -
29/01:00pm - - - - - E 13 19 7 10 - - -
29/12:30pm - - - - - ENE 11 19 6 10 - - -
29/12:00pm - - - - - NE 15 22 8 12 - - -
29/11:30am - - - - - NE 17 22 9 12 - - -
29/11:00am - - - - - NE 15 24 8 13 - - -
29/10:30am - - - - - NNE 13 20 7 11 - - -
29/10:00am - - - - - NNE 15 20 8 11 - - -
29/09:30am - - - - - NNE 13 19 7 10 - - -
29/09:00am - - - - - NNE 11 19 6 10 - - -
29/08:30am - - - - - NNE 13 20 7 11 - - -
29/08:00am - - - - - NE 17 24 9 13 - - -
29/07:30am - - - - - NNE 13 20 7 11 - - -
29/07:00am - - - - - NE 11 17 6 9 - - -
29/06:30am - - - - - NNE 13 20 7 11 - - -
29/06:00am - - - - - NE 15 20 8 11 - - -
29/05:30am - - - - - NNE 9 17 5 9 - - -
29/05:00am - - - - - NNE 17 26 9 14 - - -
29/04:30am - - - - - NNE 19 26 10 14 - - -
29/04:00am - - - - - NNE 19 28 10 15 - - -
29/03:30am - - - - - NE 15 26 8 14 - - -
29/03:00am - - - - - NNE 17 24 9 13 - - -
29/02:30am - - - - - NNE 19 30 10 16 - - -
29/02:00am - - - - - NNE 22 33 12 18 - - -
29/01:30am - - - - - NNE 20 30 11 16 - - -
29/01:00am - - - - - NE 22 35 12 19 - - -
29/12:30am - - - - - NE 22 33 12 18 - - -
29/12:00am - - - - - NE 24 37 13 20 - - -
 
Date/Time
EDT
Temp
°C
App
Temp
°C
Dew
Point
°C
Rel
Hum
%
Delta-T
°C
Wind Press
QNH
hPa
Press
MSL
hPa
Rain since
9am
mm
Dir  Spd
km/h
Gust
km/h
Spd
kts
Gust
kts
28/11:30pm - - - - - NE 24 37 13 20 - - -
28/11:00pm - - - - - NE 22 33 12 18 - - -
28/10:30pm - - - - - NNE 24 35 13 19 - - -
28/10:00pm - - - - - NE 22 33 12 18 - - -
28/09:30pm - - - - - NNE 24 37 13 20 - - -
28/09:00pm - - - - - NE 26 37 14 20 - - -
28/08:30pm - - - - - NE 22 33 12 18 - - -
28/08:00pm - - - - - NE 24 39 13 21 - - -
28/07:30pm - - - - - NE 22 35 12 19 - - -
28/07:00pm - - - - - NNE 24 37 13 20 - - -
28/06:30pm - - - - - NNE 26 43 14 23 - - -
28/06:00pm - - - - - NNE 24 35 13 19 - - -
28/05:30pm - - - - - NE 22 35 12 19 - - -
28/05:00pm - - - - - NE 20 33 11 18 - - -
28/04:30pm - - - - - NE 24 33 13 18 - - -
28/04:00pm - - - - - NE 22 35 12 19 - - -
28/03:30pm - - - - - NE 26 35 14 19 - - -
28/03:00pm - - - - - ENE 24 33 13 18 - - -
28/02:30pm - - - - - ENE 20 30 11 16 - - -
28/02:00pm - - - - - ENE 20 28 11 15 - - -
28/01:30pm - - - - - ENE 17 24 9 13 - - -
28/01:00pm - - - - - ENE 15 22 8 12 - - -
28/12:30pm - - - - - ENE 13 19 7 10 - - -
28/12:00pm - - - - - E 13 19 7 10 - - -
28/11:30am - - - - - E 11 15 6 8 - - -
28/11:00am - - - - - ENE 7 11 4 6 - - -
28/10:30am - - - - - NNE 7 13 4 7 - - -
28/10:00am - - - - - NNE 6 11 3 6 - - -
28/09:30am - - - - - WNW 2 6 1 3 - - -
28/09:00am - - - - - WNW 6 9 3 5 - - -
28/08:30am - - - - - NW 4 7 2 4 - - -
28/08:00am - - - - - NW 4 7 2 4 - - -
28/07:30am - - - - - NW 4 6 2 3 - - -
28/07:00am - - - - - WNW 4 6 2 3 - - -
28/06:30am - - - - - CALM 0 0 0 0 - - -
28/06:00am - - - - - CALM 0 0 0 0 - - -
28/05:30am - - - - - CALM 0 0 0 0 - - -
28/05:00am - - - - - CALM 0 0 0 0 - - -
28/04:30am - - - - - CALM 0 2 0 1 - - -
28/04:00am - - - - - N 2 4 1 2 - - -
28/03:30am - - - - - N 6 7 3 4 - - -
28/03:00am - - - - - NNW 6 7 3 4 - - -
28/02:30am - - - - - N 9 13 5 7 - - -
28/02:00am - - - - - NNE 9 13 5 7 - - -
28/01:30am - - - - - NNE 9 15 5 8 - - -
28/01:00am - - - - - N 11 17 6 9 - - -
28/12:30am - - - - - ENE 9 13 5 7 - - -
28/12:00am - - - - - ENE 7 13 4 7 - - -
 
Date/Time
EDT
Temp
°C
App
Temp
°C
Dew
Point
°C
Rel
Hum
%
Delta-T
°C
Wind Press
QNH
hPa
Press
MSL
hPa
Rain since
9am
mm
Dir  Spd
km/h
Gust
km/h
Spd
kts
Gust
kts
27/11:30pm - - - - - NNE 7 11 4 6 - - -
27/11:00pm - - - - - NE 7 11 4 6 - - -
27/10:30pm - - - - - ENE 9 15 5 8 - - -
27/10:00pm - - - - - ENE 11 15 6 8 - - -
27/09:30pm - - - - - ENE 9 13 5 7 - - -
27/09:00pm - - - - - E 11 19 6 10 - - -
27/08:30pm - - - - - E 13 19 7 10 - - -
27/08:00pm - - - - - SSE 19 28 10 15 - - -
27/07:30pm - - - - - S 20 28 11 15 - - -
27/07:00pm - - - - - S 22 30 12 16 - - -
27/06:30pm - - - - - S 22 32 12 17 - - -
27/06:00pm - - - - - S 20 26 11 14 - - -
27/05:30pm - - - - - S 22 32 12 17 - - -
27/05:00pm - - - - - S 22 33 12 18 - - -
27/04:30pm - - - - - S 22 33 12 18 - - -
27/04:00pm - - - - - S 22 32 12 17 - - -
27/03:30pm - - - - - S 22 33 12 18 - - -
27/03:00pm - - - - - S 24 33 13 18 - - -
27/02:30pm - - - - - S 26 37 14 20 - - -
27/02:00pm - - - - - S 22 33 12 18 - - -
27/01:30pm - - - - - S 20 32 11 17 - - -
27/01:00pm - - - - - S 22 32 12 17 - - -
27/12:30pm - - - - - S 22 33 12 18 - - -
27/12:00pm - - - - - S 17 24 9 13 - - -
27/11:30am - - - - - SSW 15 22 8 12 - - -
27/11:00am - - - - - SSW 13 20 7 11 - - -
27/10:30am - - - - - SW 15 22 8 12 - - -
27/10:00am - - - - - WSW 13 24 7 13 - - -
27/09:30am - - - - - S 17 30 9 16 - - -
27/09:00am - - - - - SSW 15 24 8 13 - - -
27/08:30am - - - - - SSW 15 26 8 14 - - -
27/08:00am - - - - - SW 11 20 6 11 - - -
27/07:30am - - - - - SW 11 22 6 12 - - -
27/07:00am - - - - - WSW 9 19 5 10 - - -
27/06:30am - - - - - SSW 15 24 8 13 - - -
27/06:00am - - - - - SSW 17 30 9 16 - - -
27/05:30am - - - - - S 17 35 9 19 - - -
27/05:00am - - - - - SW 13 20 7 11 - - -
27/04:30am - - - - - SW 17 26 9 14 - - -
27/04:00am - - - - - SW 13 20 7 11 - - -
27/03:30am - - - - - SW 15 26 8 14 - - -
27/03:00am - - - - - SW 15 28 8 15 - - -
27/02:30am - - - - - SW 15 20 8 11 - - -
27/02:00am - - - - - SW 15 22 8 12 - - -
27/01:30am - - - - - WSW 15 22 8 12 - - -
27/01:00am - - - - - WSW 13 17 7 9 - - -
27/12:30am - - - - - WSW 9 17 5 9 - - -
27/12:00am - - - - - SW 9 19 5 10 - - -
 
Date/Time
EDT
Temp
°C
App
Temp
°C
Dew
Point
°C
Rel
Hum
%
Delta-T
°C
Wind Press
QNH
hPa
Press
MSL
hPa
Rain since
9am
mm
Dir  Spd
km/h
Gust
km/h
Spd
kts
Gust
kts
26/11:30pm - - - - - S 20 30 11 16 - - -
26/11:00pm - - - - - S 30 46 16 25 - - -
26/10:30pm - - - - - S 24 33 13 18 - - -
26/10:00pm - - - - - S 22 32 12 17 - - -
26/09:30pm - - - - - SSW 13 19 7 10 - - -
26/09:00pm - - - - - S 9 19 5 10 - - -
26/08:30pm - - - - - S 20 28 11 15 - - -
26/08:00pm - - - - - S 17 24 9 13 - - -
26/07:30pm - - - - - NNE 11 15 6 8 - - -
26/07:00pm - - - - - N 11 19 6 10 - - -
26/06:30pm - - - - - NNE 17 22 9 12 - - -
26/06:00pm - - - - - NNE 13 19 7 10 - - -
26/05:30pm - - - - - NNE 17 24 9 13 - - -

Latest Capital City Observations: Canberra | Sydney | Melbourne | Brisbane | Adelaide | Perth | Hobart | Darwin

Other formats

Comma delimited format used in spreadsheet applications
http://www.bom.gov.au/fwo/IDN60901/IDN60901.95768.axf

JavaScript Object Notation format (JSON) in row-major order
http://www.bom.gov.au/fwo/IDN60901/IDN60901.95768.json

Data quality

Most of these data are generated automatically and are frequently updated. Quality checks on data are not normally performed. It is possible for incorrect values to appear. Refer to information at About Latest Weather Observations and please check the disclaimer before using these data.